createdAt,value
2023-03-26T14:39:23.664Z,22.10
2023-03-26T14:41:53.699Z,22.40
2023-03-26T14:54:24.312Z,21.10
2023-03-26T14:57:28.490Z,21.40
2023-03-26T14:59:55.412Z,21.60
2023-03-26T15:02:40.352Z,21.80
2023-03-26T15:05:16.067Z,21.90
2023-03-26T15:08:04.138Z,22.00
2023-03-26T15:10:57.668Z,22.00
2023-03-26T15:13:42.767Z,22.00
2023-03-26T15:16:31.689Z,22.00
2023-03-26T15:19:01.410Z,22.00
2023-03-26T15:22:02.240Z,22.00
2023-03-26T15:25:00.775Z,22.00
2023-03-26T15:28:05.633Z,22.00
2023-03-26T15:31:10.824Z,22.10
2023-03-26T15:34:12.551Z,22.10
2023-03-26T15:37:03.534Z,22.00
2023-03-26T15:40:08.442Z,22.10
2023-03-26T15:43:10.738Z,22.00
2023-03-26T15:45:47.591Z,22.00
2023-03-26T15:48:34.320Z,22.00
2023-03-26T15:51:17.137Z,22.00
2023-03-26T15:53:55.466Z,21.90
2023-03-26T15:56:44.164Z,21.80
2023-03-26T15:59:13.379Z,21.70
2023-03-26T16:02:03.933Z,21.60
2023-03-26T16:04:54.725Z,21.60
2023-03-26T16:07:26.314Z,21.60
2023-03-26T16:10:19.558Z,21.60
2023-03-26T16:12:46.514Z,21.60
2023-03-26T16:15:15.705Z,21.60
2023-03-26T16:18:12.329Z,21.60
2023-03-26T16:20:51.006Z,21.50
2023-03-26T16:23:30.681Z,21.50
2023-03-26T16:26:12.355Z,21.50
2023-03-26T16:28:45.341Z,21.50
2023-03-26T16:31:36.700Z,21.50
2023-03-26T16:34:05.400Z,21.50
2023-03-26T16:36:47.623Z,21.50
2023-03-26T16:39:38.736Z,21.50
2023-03-26T16:42:27.430Z,21.50
2023-03-26T16:45:17.822Z,21.60
2023-03-26T16:48:10.900Z,21.60
2023-03-26T16:50:46.818Z,21.70
2023-03-26T16:53:45.974Z,21.60
2023-03-26T16:56:26.117Z,21.70
2023-03-26T16:58:58.665Z,21.70
2023-03-26T17:01:34.721Z,21.60
2023-03-26T17:04:17.278Z,21.60
2023-03-26T17:07:03.690Z,21.60
2023-03-26T17:09:55.527Z,21.50
2023-03-26T17:12:43.002Z,21.60
2023-03-26T17:15:29.008Z,21.90
2023-03-26T17:18:26.344Z,22.10
2023-03-26T17:21:21.049Z,22.20
2023-03-26T17:24:04.228Z,22.30
2023-03-26T17:26:52.817Z,22.40
2023-03-26T17:29:43.834Z,22.60
2023-03-26T17:32:14.849Z,22.60
2023-03-26T17:34:51.004Z,22.70
2023-03-26T17:37:18.930Z,22.90
2023-03-26T17:39:48.467Z,23.00
2023-03-26T17:42:25.500Z,23.00
2023-03-26T17:45:34.162Z,23.10
2023-03-26T17:48:17.221Z,23.20
2023-03-26T17:51:04.071Z,23.30
2023-03-26T17:53:34.169Z,23.30
2023-03-26T17:56:11.387Z,23.40
2023-03-26T17:58:49.099Z,23.40
2023-03-26T18:01:34.884Z,23.40
2023-03-26T18:04:08.634Z,23.50
2023-03-26T18:06:38.566Z,23.50
2023-03-26T18:09:33.200Z,23.50
2023-03-26T18:12:34.836Z,23.50
2023-03-26T18:15:24.680Z,23.60
2023-03-26T18:18:01.575Z,23.60
2023-03-26T18:20:29.838Z,23.60
2023-03-26T18:22:57.474Z,23.60
2023-03-26T18:25:31.573Z,23.60
2023-03-26T18:28:02.045Z,23.50
2023-03-26T18:30:29.414Z,23.50
2023-03-26T18:33:13.867Z,23.50
2023-03-26T18:35:46.539Z,23.50
2023-03-26T18:38:35.530Z,23.40
2023-03-26T18:41:06.531Z,23.40
2023-03-26T18:43:35.653Z,23.40
2023-03-26T18:46:13.669Z,23.40
2023-03-26T18:48:41.043Z,23.40
2023-03-26T18:51:08.280Z,23.40
2023-03-26T18:53:51.208Z,23.40
2023-03-26T18:56:48.642Z,23.40
2023-03-26T18:59:32.619Z,23.30
2023-03-26T19:02:04.287Z,23.30
2023-03-26T19:04:33.459Z,23.20
2023-03-26T19:07:01.718Z,23.20
2023-03-26T19:09:32.004Z,23.10
2023-03-26T19:12:18.803Z,23.10
2023-03-26T19:15:14.909Z,23.10
2023-03-26T19:17:48.596Z,23.00
2023-03-26T19:20:22.514Z,23.00
2023-03-26T19:22:50.635Z,23.00
2023-03-26T19:25:22.929Z,22.90
2023-03-26T19:27:51.770Z,22.90
2023-03-26T19:30:28.441Z,22.80
2023-03-26T19:33:13.217Z,22.80
2023-03-26T19:35:42.318Z,22.80
2023-03-26T19:38:23.501Z,22.70
2023-03-26T19:40:53.081Z,22.60
2023-03-26T19:43:20.972Z,22.60
2023-03-26T19:46:00.369Z,22.60
2023-03-26T19:51:18.713Z,22.60
2023-03-26T19:51:32.809Z,22.50
2023-03-26T19:54:03.112Z,22.60
2023-03-26T19:56:30.352Z,22.50
2023-03-26T19:58:58.310Z,22.50
2023-03-26T20:01:28.491Z,22.50
2023-03-26T20:03:58.885Z,22.50
2023-03-26T20:06:41.767Z,22.50
2023-03-26T20:09:12.608Z,22.50
2023-03-26T20:11:40.808Z,22.40
2023-03-26T20:14:17.809Z,22.50
2023-03-26T20:16:46.037Z,22.40
2023-03-26T20:19:14.665Z,22.40
2023-03-26T20:21:42.370Z,22.40
2023-03-26T20:24:13.226Z,22.40
2023-03-26T20:26:40.747Z,22.40
2023-03-26T20:29:07.817Z,22.40
2023-03-26T20:31:34.749Z,22.40
2023-03-26T20:34:02.378Z,22.40
2023-03-26T20:36:33.965Z,22.40
2023-03-26T20:39:08.432Z,22.40
2023-03-26T20:41:39.065Z,22.40
2023-03-26T20:44:13.816Z,22.40
2023-03-26T20:46:42.308Z,22.40
2023-03-26T20:49:10.645Z,22.30
2023-03-26T20:51:38.719Z,22.40
2023-03-26T20:54:08.919Z,22.30
